createdAt,value
2019-05-23T00:01:49.107Z,13.30
2019-05-23T00:04:25.766Z,13.30
2019-05-23T00:06:55.102Z,13.20
2019-05-23T00:09:24.596Z,13.30
2019-05-23T00:12:12.149Z,13.20
2019-05-23T00:14:44.440Z,13.20
2019-05-23T00:17:18.900Z,13.20
2019-05-23T00:19:47.896Z,13.20
2019-05-23T00:22:17.322Z,13.20
2019-05-23T00:24:48.261Z,13.20
2019-05-23T00:27:18.047Z,13.20
2019-05-23T00:29:49.008Z,13.20
2019-05-23T00:32:19.745Z,13.20
2019-05-23T00:34:51.501Z,13.20
2019-05-23T00:37:23.039Z,13.20
2019-05-23T00:39:53.057Z,13.20
2019-05-23T00:42:22.672Z,13.20
2019-05-23T00:44:52.375Z,13.10
2019-05-23T00:47:22.811Z,13.10
2019-05-23T00:49:53.433Z,13.10
2019-05-23T00:52:22.438Z,13.10
2019-05-23T00:54:51.605Z,13.00
2019-05-23T00:57:21.361Z,13.00
2019-05-23T00:59:50.929Z,13.00
2019-05-23T01:02:19.843Z,12.90
2019-05-23T01:04:51.108Z,12.90
2019-05-23T01:07:21.012Z,12.80
2019-05-23T01:09:50.883Z,12.80
2019-05-23T01:12:21.336Z,12.80
2019-05-23T01:14:52.687Z,12.80
2019-05-23T01:17:22.401Z,12.80
2019-05-23T01:19:52.189Z,12.80
2019-05-23T01:22:21.285Z,12.80
2019-05-23T01:24:51.835Z,12.80
2019-05-23T01:27:21.545Z,12.70
2019-05-23T01:29:51.563Z,12.80
2019-05-23T01:32:25.162Z,12.80
2019-05-23T01:34:54.021Z,12.80
2019-05-23T01:37:23.265Z,12.80
2019-05-23T01:39:53.042Z,12.80
2019-05-23T01:42:23.572Z,12.80
2019-05-23T01:44:55.287Z,12.70
2019-05-23T01:47:24.221Z,12.80
2019-05-23T01:49:53.468Z,12.80
2019-05-23T01:52:25.408Z,12.70
2019-05-23T01:54:54.919Z,12.70
2019-05-23T01:57:23.971Z,12.70
2019-05-23T02:00:08.284Z,12.70
2019-05-23T02:02:24.235Z,12.70
2019-05-23T02:04:53.412Z,12.70
2019-05-23T02:07:22.712Z,12.70
2019-05-23T02:09:52.543Z,12.60
2019-05-23T02:12:22.132Z,12.60
2019-05-23T02:14:52.174Z,12.60
2019-05-23T02:17:21.796Z,12.60
2019-05-23T02:19:50.729Z,12.60
2019-05-23T02:22:20.481Z,12.50
2019-05-23T02:24:49.763Z,12.50
2019-05-23T02:27:18.936Z,12.40
2019-05-23T02:29:48.097Z,12.40
2019-05-23T02:32:18.188Z,12.40
2019-05-23T02:34:47.705Z,12.30
2019-05-23T02:37:33.785Z,12.30
2019-05-23T02:40:10.636Z,12.30
2019-05-23T02:42:44.238Z,12.30
2019-05-23T02:45:15.384Z,12.30
2019-05-23T02:47:50.954Z,12.30
2019-05-23T02:50:27.426Z,12.30
2019-05-23T02:52:57.989Z,12.30
2019-05-23T02:55:30.795Z,12.30
2019-05-23T02:58:05.728Z,12.30
2019-05-23T03:00:54.997Z,12.30
2019-05-23T03:03:28.390Z,12.30
2019-05-23T03:05:59.677Z,12.30
2019-05-23T03:08:31.403Z,12.40
2019-05-23T03:11:19.209Z,12.40
2019-05-23T03:13:48.371Z,12.30
2019-05-23T03:16:23.172Z,12.30
2019-05-23T03:18:56.082Z,12.20
2019-05-23T03:21:27.258Z,12.20
2019-05-23T03:23:57.829Z,12.20
2019-05-23T03:26:50.925Z,12.20
2019-05-23T03:29:21.620Z,12.20
2019-05-23T03:32:01.258Z,12.10
2019-05-23T03:34:34.675Z,12.20
2019-05-23T03:37:05.778Z,12.20
2019-05-23T03:39:34.723Z,12.10
2019-05-23T03:42:04.271Z,12.10
2019-05-23T03:44:34.085Z,12.10
2019-05-23T03:47:03.829Z,12.10
2019-05-23T03:49:34.478Z,12.20
2019-05-23T03:52:04.961Z,12.20
2019-05-23T03:54:33.734Z,12.20
2019-05-23T03:57:02.500Z,12.20
2019-05-23T03:59:38.668Z,12.20
2019-05-23T04:02:09.192Z,12.20
2019-05-23T04:04:39.694Z,12.20
2019-05-23T04:07:10.385Z,12.20
2019-05-23T04:09:39.427Z,12.30
2019-05-23T04:12:09.189Z,12.30
2019-05-23T04:14:38.868Z,12.30
2019-05-23T04:17:08.300Z,12.30
2019-05-23T04:19:37.643Z,12.30
2019-05-23T04:22:07.550Z,12.30
2019-05-23T04:24:37.196Z,12.30
2019-05-23T04:27:07.173Z,12.40
2019-05-23T04:29:36.357Z,12.40
2019-05-23T04:32:09.082Z,12.40
2019-05-23T04:34:37.643Z,12.40
2019-05-23T04:37:12.578Z,12.40
2019-05-23T04:39:41.726Z,12.50
2019-05-23T04:42:11.384Z,12.50
2019-05-23T04:44:44.044Z,12.50
2019-05-23T04:47:11.906Z,12.50
2019-05-23T04:49:40.681Z,12.50
2019-05-23T04:52:10.382Z,12.50
2019-05-23T04:54:39.822Z,12.60
2019-05-23T04:57:08.876Z,12.60
2019-05-23T04:59:38.075Z,12.60
2019-05-23T05:02:23.066Z,12.50
2019-05-23T05:04:38.513Z,12.60
2019-05-23T05:07:08.394Z,12.60
2019-05-23T05:09:37.878Z,12.60
2019-05-23T05:12:07.675Z,12.60
2019-05-23T05:14:36.841Z,12.60
2019-05-23T05:17:06.976Z,12.70
2019-05-23T05:19:35.828Z,12.70
2019-05-23T05:22:05.088Z,12.70
2019-05-23T05:24:33.873Z,12.80
2019-05-23T05:27:02.829Z,12.80
2019-05-23T05:29:31.644Z,12.80
2019-05-23T05:32:03.554Z,12.90
2019-05-23T05:34:31.257Z,12.90
2019-05-23T05:37:00.569Z,12.90
2019-05-23T05:39:30.130Z,13.00
2019-05-23T05:41:59.967Z,13.00
2019-05-23T05:44:29.046Z,13.10
2019-05-23T05:46:57.980Z,13.20
2019-05-23T05:49:28.945Z,13.20
2019-05-23T05:51:57.773Z,13.30
2019-05-23T05:54:26.916Z,13.30
2019-05-23T05:56:55.698Z,13.50
2019-05-23T05:59:24.516Z,13.50
2019-05-23T06:01:53.593Z,13.60
2019-05-23T06:04:22.369Z,13.70
2019-05-23T06:06:59.045Z,13.80
2019-05-23T06:09:32.480Z,13.90
2019-05-23T06:12:01.309Z,14.00
2019-05-23T06:14:30.162Z,14.10
2019-05-23T06:17:00.109Z,14.20
2019-05-23T06:19:28.968Z,14.20
2019-05-23T06:21:58.840Z,14.30
2019-05-23T06:24:42.564Z,14.40
2019-05-23T06:26:59.077Z,14.50
2019-05-23T06:29:28.711Z,14.60
2019-05-23T06:31:58.034Z,14.70
2019-05-23T06:34:27.078Z,14.80
2019-05-23T06:36:56.460Z,14.90
2019-05-23T06:39:25.477Z,15.00
2019-05-23T06:41:55.005Z,15.10
2019-05-23T06:44:23.897Z,15.30
2019-05-23T06:46:52.681Z,15.50
2019-05-23T06:49:21.460Z,15.70
2019-05-23T06:51:50.293Z,15.90
2019-05-23T06:54:19.154Z,16.00
2019-05-23T06:56:47.948Z,16.10
2019-05-23T06:59:17.038Z,16.20
2019-05-23T07:01:45.805Z,16.30
2019-05-23T07:04:15.154Z,16.50
2019-05-23T07:06:45.378Z,16.70
2019-05-23T07:09:17.253Z,16.90
2019-05-23T07:11:46.023Z,17.00
2019-05-23T07:14:15.835Z,17.20
2019-05-23T07:16:44.616Z,17.30
2019-05-23T07:19:14.089Z,17.50
2019-05-23T07:21:42.912Z,17.70
2019-05-23T07:24:12.160Z,17.80
2019-05-23T07:26:41.315Z,18.00
2019-05-23T07:29:12.382Z,18.10
2019-05-23T07:31:41.585Z,18.10
2019-05-23T07:34:10.488Z,18.10
2019-05-23T07:36:40.297Z,18.20
2019-05-23T07:39:11.595Z,18.40
2019-05-23T07:41:40.552Z,18.60
2019-05-23T07:44:10.020Z,18.70
2019-05-23T07:46:39.241Z,18.70
2019-05-23T07:49:08.339Z,18.70
2019-05-23T07:51:37.608Z,18.70
2019-05-23T07:54:14.499Z,18.90
2019-05-23T07:56:45.535Z,19.00
2019-05-23T07:59:14.277Z,19.20
2019-05-23T08:01:46.136Z,19.60
2019-05-23T08:04:21.733Z,19.90
2019-05-23T08:06:48.770Z,20.00
2019-05-23T08:09:18.400Z,19.90
2019-05-23T08:11:47.886Z,19.90
2019-05-23T08:14:17.016Z,20.20
2019-05-23T08:16:46.203Z,20.40
2019-05-23T08:19:19.290Z,20.60
2019-05-23T08:21:45.991Z,20.70
2019-05-23T08:24:15.222Z,20.80
2019-05-23T08:26:45.482Z,20.60
2019-05-23T08:29:29.479Z,20.60
2019-05-23T08:31:44.732Z,20.80
2019-05-23T08:34:14.124Z,20.90
2019-05-23T08:36:43.594Z,21.00
2019-05-23T08:39:12.534Z,21.30
2019-05-23T08:41:41.422Z,21.60
2019-05-23T08:44:11.563Z,21.70
2019-05-23T08:46:41.044Z,21.70
2019-05-23T08:49:10.349Z,22.00
2019-05-23T08:51:39.516Z,22.30
2019-05-23T08:54:08.568Z,22.60
2019-05-23T08:56:37.732Z,22.80
2019-05-23T08:59:09.108Z,23.00
2019-05-23T09:01:44.284Z,23.00
2019-05-23T09:04:13.649Z,23.00
2019-05-23T09:06:42.820Z,22.90
2019-05-23T09:09:28.327Z,23.00
2019-05-23T09:11:44.433Z,23.10
2019-05-23T09:14:13.305Z,23.50
2019-05-23T09:16:42.681Z,23.70
2019-05-23T09:19:11.697Z,23.80
2019-05-23T09:21:41.405Z,23.80
2019-05-23T09:24:10.913Z,24.00
2019-05-23T09:26:39.904Z,24.00
2019-05-23T09:29:10.022Z,24.30
2019-05-23T09:31:44.751Z,24.30
2019-05-23T09:34:13.947Z,24.10
2019-05-23T09:36:43.072Z,24.20
2019-05-23T09:39:13.675Z,24.20
2019-05-23T09:41:42.549Z,24.20
2019-05-23T09:44:11.454Z,24.20
2019-05-23T09:46:40.244Z,24.10
2019-05-23T09:49:11.359Z,24.00
2019-05-23T09:51:39.769Z,24.00
2019-05-23T09:54:08.530Z,24.20
2019-05-23T09:56:37.749Z,24.50
2019-05-23T09:59:06.538Z,24.80
2019-05-23T10:01:35.325Z,24.70
2019-05-23T10:04:04.500Z,25.00
2019-05-23T10:06:33.497Z,25.10
2019-05-23T10:09:02.443Z,25.20
2019-05-23T10:11:31.399Z,25.30
2019-05-23T10:14:01.215Z,25.40
2019-05-23T10:16:30.694Z,25.40
2019-05-23T10:19:00.630Z,25.40
2019-05-23T10:21:29.520Z,25.30
2019-05-23T10:23:58.411Z,25.30
2019-05-23T10:26:27.505Z,25.40
2019-05-23T10:28:56.406Z,25.60
2019-05-23T10:31:25.675Z,25.70
2019-05-23T10:33:54.813Z,25.90
2019-05-23T10:36:23.661Z,26.10
2019-05-23T10:38:52.573Z,26.30
2019-05-23T10:41:21.667Z,26.40
2019-05-23T10:43:50.444Z,26.40
2019-05-23T10:46:19.552Z,26.50
2019-05-23T10:48:48.441Z,26.50
2019-05-23T10:51:17.652Z,26.50
2019-05-23T10:53:46.632Z,26.70
2019-05-23T10:56:20.254Z,26.90
2019-05-23T10:58:46.547Z,26.90
2019-05-23T11:01:15.658Z,26.60
2019-05-23T11:03:44.928Z,26.30
2019-05-23T11:06:16.651Z,25.90
2019-05-23T11:08:44.894Z,25.90
2019-05-23T11:11:15.206Z,26.00
2019-05-23T11:13:45.525Z,26.10
2019-05-23T11:16:15.663Z,26.10
2019-05-23T11:18:44.932Z,26.30
2019-05-23T11:21:13.750Z,26.40
2019-05-23T11:23:44.174Z,26.40
2019-05-23T11:26:13.368Z,26.30
2019-05-23T11:28:42.776Z,26.40
2019-05-23T11:31:12.274Z,26.20
2019-05-23T11:33:41.183Z,26.10
2019-05-23T11:36:11.408Z,26.20
2019-05-23T11:38:40.637Z,26.40
2019-05-23T11:41:09.437Z,26.40
2019-05-23T11:43:39.695Z,26.50
2019-05-23T11:46:10.638Z,26.40
2019-05-23T11:48:39.501Z,26.60
2019-05-23T11:51:08.393Z,26.70
2019-05-23T11:53:37.593Z,27.00
2019-05-23T11:56:06.503Z,27.10
2019-05-23T11:58:35.701Z,27.10
2019-05-23T12:01:19.867Z,27.10
2019-05-23T12:03:42.388Z,27.10
2019-05-23T12:06:11.386Z,27.20
2019-05-23T12:08:40.271Z,27.40
2019-05-23T12:11:09.074Z,27.50
2019-05-23T12:13:37.800Z,27.60
2019-05-23T12:16:08.584Z,27.60
2019-05-23T12:18:40.526Z,27.70
2019-05-23T12:21:09.485Z,27.70
2019-05-23T12:23:40.166Z,27.80
2019-05-23T12:26:11.719Z,27.80
2019-05-23T12:28:40.481Z,27.70
2019-05-23T12:31:10.196Z,27.70
2019-05-23T12:33:39.212Z,27.50
2019-05-23T12:36:08.001Z,27.30
2019-05-23T12:38:37.022Z,27.20
2019-05-23T12:41:07.804Z,27.10
2019-05-23T12:43:36.824Z,27.20
2019-05-23T12:46:06.048Z,27.20
2019-05-23T12:48:45.456Z,27.30
2019-05-23T12:51:16.011Z,27.50
2019-05-23T12:53:45.134Z,27.60
2019-05-23T12:56:14.270Z,27.70
2019-05-23T12:58:43.987Z,27.60
2019-05-23T13:01:15.078Z,27.50
2019-05-23T13:03:44.753Z,27.30
2019-05-23T13:06:13.949Z,27.30
2019-05-23T13:08:43.311Z,27.30
2019-05-23T13:11:12.637Z,27.50
2019-05-23T13:13:41.521Z,27.60
2019-05-23T13:16:10.418Z,27.70
2019-05-23T13:18:39.513Z,27.70
2019-05-23T13:21:08.381Z,27.80
2019-05-23T13:23:37.909Z,27.90
2019-05-23T13:26:06.977Z,27.90
2019-05-23T13:28:36.103Z,27.90
2019-05-23T13:31:04.870Z,27.90
2019-05-23T13:33:34.156Z,27.90
2019-05-23T13:36:03.588Z,28.00
2019-05-23T13:38:32.991Z,28.00
2019-05-23T13:41:01.881Z,27.90
2019-05-23T13:43:30.975Z,27.90
2019-05-23T13:45:59.866Z,27.90
2019-05-23T13:48:28.933Z,27.90
2019-05-23T13:50:57.867Z,27.80
2019-05-23T13:53:26.724Z,27.80
2019-05-23T13:55:55.607Z,27.80
2019-05-23T13:58:25.018Z,27.60
2019-05-23T14:00:54.417Z,27.50
2019-05-23T14:03:23.203Z,27.40
2019-05-23T14:05:52.190Z,27.30
2019-05-23T14:08:21.516Z,27.10
2019-05-23T14:10:50.303Z,26.90
2019-05-23T14:13:19.335Z,26.70
2019-05-23T14:15:50.216Z,26.70
2019-05-23T14:18:20.867Z,26.70
2019-05-23T14:20:50.236Z,26.70
2019-05-23T14:23:26.840Z,26.70
2019-05-23T14:25:57.471Z,26.60
2019-05-23T14:28:26.748Z,26.50
2019-05-23T14:30:57.505Z,26.50
2019-05-23T14:33:31.623Z,26.40
2019-05-23T14:36:02.045Z,26.40
2019-05-23T14:38:32.438Z,26.40
2019-05-23T14:41:01.343Z,26.50
2019-05-23T14:43:30.250Z,26.40
2019-05-23T14:46:09.690Z,26.50
2019-05-23T14:48:50.660Z,26.50
2019-05-23T14:51:23.648Z,26.50
2019-05-23T14:53:54.178Z,26.40
2019-05-23T14:56:24.910Z,26.20
2019-05-23T14:58:54.033Z,26.10
2019-05-23T15:01:24.850Z,26.00
2019-05-23T15:03:54.345Z,25.90
2019-05-23T15:06:23.735Z,25.80
2019-05-23T15:08:52.533Z,25.70
2019-05-23T15:11:23.986Z,25.60
2019-05-23T15:13:52.981Z,25.40
2019-05-23T15:16:22.159Z,25.40
2019-05-23T15:18:50.921Z,25.30
2019-05-23T15:21:19.957Z,25.30
2019-05-23T15:23:48.826Z,25.30
2019-05-23T15:26:23.197Z,25.20
2019-05-23T15:28:48.374Z,25.10
2019-05-23T15:31:17.701Z,25.10
2019-05-23T15:33:46.759Z,24.90
2019-05-23T15:36:15.857Z,24.80
2019-05-23T15:38:44.748Z,24.70
2019-05-23T15:41:13.641Z,24.70
2019-05-23T15:43:42.632Z,24.70
2019-05-23T15:46:11.500Z,24.60
2019-05-23T15:48:40.720Z,24.50
2019-05-23T15:51:11.228Z,24.40
2019-05-23T15:53:44.851Z,24.40
2019-05-23T15:56:31.506Z,24.30
2019-05-23T15:59:01.912Z,24.30
2019-05-23T16:01:38.807Z,24.30
2019-05-23T16:04:09.204Z,24.40
2019-05-23T16:06:41.318Z,24.40
2019-05-23T16:09:27.663Z,24.40
2019-05-23T16:11:43.339Z,24.30
2019-05-23T16:14:12.837Z,24.30
2019-05-23T16:16:41.931Z,24.20
2019-05-23T16:19:10.722Z,24.10
2019-05-23T16:21:40.634Z,24.00
2019-05-23T16:24:10.240Z,23.90
2019-05-23T16:26:39.847Z,23.80
2019-05-23T16:29:10.153Z,23.80
2019-05-23T16:31:39.663Z,23.70
2019-05-23T16:34:08.645Z,23.60
2019-05-23T16:36:37.538Z,23.50
2019-05-23T16:39:08.168Z,23.50
2019-05-23T16:41:37.158Z,23.50
2019-05-23T16:44:06.818Z,23.50
2019-05-23T16:46:35.784Z,23.50
2019-05-23T16:49:04.879Z,23.50
2019-05-23T16:51:33.651Z,23.60
2019-05-23T16:54:03.358Z,23.60
2019-05-23T16:56:48.792Z,23.60
2019-05-23T16:59:19.331Z,23.60
2019-05-23T17:01:57.919Z,23.60
2019-05-23T17:04:34.065Z,23.60
2019-05-23T17:07:10.349Z,23.60
2019-05-23T17:10:07.403Z,23.50
2019-05-23T17:12:27.961Z,23.40
2019-05-23T17:15:07.640Z,23.40
2019-05-23T17:18:00.856Z,23.30
2019-05-23T17:20:25.696Z,23.20
2019-05-23T17:23:04.920Z,23.10
2019-05-23T17:25:50.642Z,23.00
2019-05-23T17:28:24.070Z,22.90
2019-05-23T17:30:54.544Z,22.70
2019-05-23T17:33:23.507Z,22.60
2019-05-23T17:35:52.394Z,22.50
2019-05-23T17:38:21.260Z,22.40
2019-05-23T17:40:50.482Z,22.40
2019-05-23T17:43:19.577Z,22.30
2019-05-23T17:45:48.469Z,22.20
2019-05-23T17:48:17.538Z,22.10
2019-05-23T17:50:47.308Z,22.10
2019-05-23T17:53:16.410Z,22.10
2019-05-23T17:55:46.662Z,22.00
2019-05-23T17:58:17.521Z,22.00
2019-05-23T18:00:47.996Z,22.00
2019-05-23T18:03:17.257Z,22.00
2019-05-23T18:05:46.223Z,22.00
2019-05-23T18:08:16.365Z,22.00
2019-05-23T18:10:46.211Z,22.00
2019-05-23T18:13:16.709Z,22.00
2019-05-23T18:15:46.289Z,22.00
2019-05-23T18:18:15.419Z,22.00
2019-05-23T18:20:44.377Z,22.00
2019-05-23T18:23:13.917Z,22.00
2019-05-23T18:25:43.206Z,22.00
2019-05-23T18:28:13.913Z,22.00
2019-05-23T18:30:47.849Z,21.90
2019-05-23T18:33:18.292Z,21.90
2019-05-23T18:35:47.840Z,21.70
2019-05-23T18:38:17.060Z,21.70
2019-05-23T18:41:01.729Z,21.60
2019-05-23T18:43:17.322Z,21.60
2019-05-23T18:45:47.923Z,21.50
2019-05-23T18:48:16.926Z,21.30
2019-05-23T18:50:46.243Z,21.20
2019-05-23T18:53:15.233Z,21.10
2019-05-23T18:55:44.992Z,21.00
2019-05-23T18:58:13.936Z,20.90
2019-05-23T19:00:52.327Z,20.90
2019-05-23T19:03:21.535Z,20.80
2019-05-23T19:05:50.928Z,20.80
2019-05-23T19:08:20.232Z,20.80
2019-05-23T19:10:51.599Z,20.70
2019-05-23T19:13:20.635Z,20.60
2019-05-23T19:15:49.730Z,20.60
2019-05-23T19:18:19.089Z,20.60
2019-05-23T19:20:48.264Z,20.60
2019-05-23T19:23:17.383Z,20.60
2019-05-23T19:25:46.464Z,20.50
2019-05-23T19:28:15.779Z,20.50
2019-05-23T19:30:44.993Z,20.40
2019-05-23T19:33:14.068Z,20.40
2019-05-23T19:35:42.958Z,20.30
2019-05-23T19:38:12.771Z,20.30
2019-05-23T19:40:47.966Z,20.20
2019-05-23T19:43:17.896Z,20.20
2019-05-23T19:45:47.307Z,20.10
2019-05-23T19:48:16.456Z,20.10
2019-05-23T19:50:45.312Z,20.00
2019-05-23T19:53:14.285Z,20.00
2019-05-23T19:55:43.167Z,19.90
2019-05-23T19:58:12.904Z,19.90
2019-05-23T20:00:42.181Z,19.80
2019-05-23T20:03:11.811Z,19.80
2019-05-23T20:05:42.319Z,19.80
2019-05-23T20:08:11.650Z,19.70
2019-05-23T20:10:46.372Z,19.70
2019-05-23T20:13:18.401Z,19.60
2019-05-23T20:15:46.208Z,19.50
2019-05-23T20:18:16.338Z,19.50
2019-05-23T20:20:45.206Z,19.40
2019-05-23T20:23:16.024Z,19.40
2019-05-23T20:25:45.528Z,19.30
2019-05-23T20:28:14.569Z,19.30
2019-05-23T20:30:46.377Z,19.20
2019-05-23T20:33:15.996Z,19.20
2019-05-23T20:35:44.902Z,19.10
2019-05-23T20:38:13.926Z,19.00
2019-05-23T20:40:43.601Z,19.00
2019-05-23T20:43:12.608Z,18.90
2019-05-23T20:45:41.568Z,18.90
2019-05-23T20:48:10.885Z,18.90
2019-05-23T20:50:39.741Z,18.80
2019-05-23T20:53:08.797Z,18.80
2019-05-23T20:55:37.760Z,18.70
2019-05-23T20:58:06.753Z,18.70
2019-05-23T21:00:42.794Z,18.70
2019-05-23T21:03:11.677Z,18.70
2019-05-23T21:05:41.006Z,18.60
2019-05-23T21:08:09.977Z,18.60
2019-05-23T21:10:44.948Z,18.60
2019-05-23T21:13:14.027Z,18.50
2019-05-23T21:15:42.919Z,18.50
2019-05-23T21:18:12.145Z,18.50
2019-05-23T21:20:41.206Z,18.50
2019-05-23T21:23:13.456Z,18.40
2019-05-23T21:25:44.106Z,18.40
2019-05-23T21:28:12.893Z,18.30
2019-05-23T21:30:41.887Z,18.30
2019-05-23T21:33:10.778Z,18.30
2019-05-23T21:35:39.644Z,18.20
2019-05-23T21:38:08.559Z,18.10
2019-05-23T21:40:42.342Z,18.10
2019-05-23T21:43:11.517Z,18.10
2019-05-23T21:45:41.132Z,18.00
2019-05-23T21:48:10.034Z,18.00
2019-05-23T21:50:38.808Z,18.00
2019-05-23T21:53:08.601Z,17.90
2019-05-23T21:55:39.175Z,17.90
2019-05-23T21:58:09.066Z,17.80
2019-05-23T22:01:00.597Z,17.80
2019-05-23T22:03:31.023Z,17.80
2019-05-23T22:05:59.794Z,17.80
2019-05-23T22:08:28.776Z,17.80
2019-05-23T22:10:57.650Z,17.80
2019-05-23T22:13:26.800Z,17.70
2019-05-23T22:16:00.525Z,17.70
2019-05-23T22:18:29.510Z,17.70
2019-05-23T22:20:58.280Z,17.70
2019-05-23T22:23:27.121Z,17.70
2019-05-23T22:25:55.903Z,17.60
2019-05-23T22:28:24.840Z,17.60
2019-05-23T22:30:53.723Z,17.50
2019-05-23T22:33:29.953Z,17.50
2019-05-23T22:36:00.416Z,17.50
2019-05-23T22:41:08.571Z,17.40
2019-05-23T22:43:37.324Z,17.40
2019-05-23T22:46:06.223Z,17.40
2019-05-23T22:48:35.141Z,17.40
2019-05-23T22:51:03.920Z,17.30
2019-05-23T22:53:32.823Z,17.30
2019-05-23T22:56:01.685Z,17.30
2019-05-23T22:58:30.472Z,17.30
2019-05-23T23:00:59.372Z,17.30
2019-05-23T23:03:28.279Z,17.30
2019-05-23T23:05:57.250Z,17.30
2019-05-23T23:08:27.676Z,17.30
2019-05-23T23:10:56.590Z,17.30
2019-05-23T23:13:38.362Z,17.30
2019-05-23T23:15:56.929Z,17.20
2019-05-23T23:18:25.727Z,17.20
2019-05-23T23:20:54.710Z,17.20
2019-05-23T23:23:23.597Z,17.10
2019-05-23T23:25:52.592Z,17.10
2019-05-23T23:28:21.360Z,17.10
2019-05-23T23:30:51.116Z,17.10
2019-05-23T23:33:20.056Z,17.10
2019-05-23T23:35:48.958Z,17.00
2019-05-23T23:38:17.762Z,17.00
2019-05-23T23:40:46.651Z,17.00
2019-05-23T23:43:15.515Z,17.00
2019-05-23T23:46:02.561Z,17.00
2019-05-23T23:48:49.364Z,17.00
2019-05-23T23:51:36.279Z,17.00
2019-05-23T23:54:23.089Z,17.00
2019-05-23T23:57:10.517Z,17.00
2019-05-23T23:59:44.420Z,17.00
